createdAt,value
2018-08-09T00:04:52.077Z,28.06
2018-08-09T00:09:56.479Z,27.89
2018-08-09T00:15:06.443Z,27.93
2018-08-09T00:20:12.467Z,27.85
2018-08-09T00:26:21.625Z,27.90
2018-08-09T00:31:28.704Z,27.85
2018-08-09T00:36:34.305Z,27.78
2018-08-09T00:41:43.805Z,27.79
2018-08-09T00:46:48.849Z,27.77
2018-08-09T00:51:59.589Z,27.71
2018-08-09T00:57:04.025Z,27.73
2018-08-09T01:02:10.120Z,27.67
2018-08-09T01:07:15.629Z,27.64
2018-08-09T01:12:20.182Z,27.63
2018-08-09T01:17:26.994Z,27.57
2018-08-09T01:22:31.674Z,27.51
2018-08-09T01:27:37.456Z,27.55
2018-08-09T01:32:42.933Z,27.55
2018-08-09T01:37:47.212Z,27.49
2018-08-09T01:43:04.378Z,27.43
2018-08-09T01:48:08.749Z,27.47
2018-08-09T01:53:13.681Z,27.42
2018-08-09T01:58:18.509Z,27.38
2018-08-09T02:03:22.744Z,27.39
2018-08-09T02:08:29.076Z,27.39
2018-08-09T02:13:33.563Z,27.36
2018-08-09T02:18:40.960Z,27.35
2018-08-09T02:23:46.815Z,27.31
2018-08-09T02:28:52.382Z,27.28
2018-08-09T02:33:57.777Z,27.30
2018-08-09T02:39:02.717Z,27.33
2018-08-09T02:44:08.536Z,27.25
2018-08-09T02:49:15.012Z,27.23
2018-08-09T02:54:24.572Z,27.23
2018-08-09T02:59:34.195Z,27.18
2018-08-09T03:04:43.715Z,27.19
2018-08-09T03:15:15.108Z,27.17
2018-08-09T03:20:19.552Z,27.16
2018-08-09T03:25:28.729Z,27.15
2018-08-09T03:30:34.815Z,27.15
2018-08-09T03:35:39.897Z,27.16
2018-08-09T03:40:50.759Z,27.16
2018-08-09T03:45:57.006Z,26.82
2018-08-09T03:51:04.869Z,26.44
2018-08-09T03:56:10.746Z,26.12
2018-08-09T04:01:17.014Z,26.19
2018-08-09T04:06:20.706Z,25.89
2018-08-09T04:11:27.322Z,24.91
2018-08-09T04:16:39.433Z,24.74
2018-08-09T04:21:48.610Z,24.59
2018-08-09T04:26:57.351Z,24.39
2018-08-09T04:32:09.417Z,24.29
2018-08-09T04:37:15.419Z,24.23
2018-08-09T04:42:23.929Z,24.21
2018-08-09T04:47:28.781Z,24.19
2018-08-09T04:52:37.448Z,24.15
2018-08-09T04:57:41.796Z,24.15
2018-08-09T05:02:48.814Z,24.16
2018-08-09T05:07:54.733Z,24.15
2018-08-09T05:12:59.975Z,24.11
2018-08-09T05:18:05.600Z,24.13
2018-08-09T05:23:09.895Z,24.19
2018-08-09T05:28:14.148Z,24.22
2018-08-09T05:33:18.783Z,24.18
2018-08-09T05:38:24.828Z,24.20
2018-08-09T05:43:30.808Z,24.26
2018-08-09T05:48:35.697Z,24.24
2018-08-09T05:53:45.454Z,24.25
2018-08-09T05:58:49.724Z,24.40
2018-08-09T06:04:00.389Z,24.43
2018-08-09T06:09:07.700Z,24.56
2018-08-09T06:14:14.592Z,24.72
2018-08-09T06:19:18.660Z,24.74
2018-08-09T06:24:23.500Z,24.88
2018-08-09T06:29:28.130Z,25.02
2018-08-09T06:34:32.253Z,24.99
2018-08-09T06:39:40.329Z,24.97
2018-08-09T06:44:44.651Z,25.19
2018-08-09T06:49:50.134Z,25.52
2018-08-09T06:54:54.743Z,25.54
2018-08-09T06:59:59.071Z,25.69
2018-08-09T07:05:03.327Z,25.77
2018-08-09T07:10:08.329Z,25.86
2018-08-09T07:15:13.352Z,25.84
2018-08-09T07:20:17.069Z,25.87
2018-08-09T07:25:20.860Z,25.91
2018-08-09T07:30:25.121Z,26.02
2018-08-09T07:35:28.864Z,26.01
2018-08-09T07:40:40.826Z,26.00
2018-08-09T07:56:50.532Z,26.25
2018-08-09T08:01:54.256Z,26.20
2018-08-09T08:06:58.145Z,26.26
2018-08-09T08:12:01.974Z,26.29
2018-08-09T08:17:05.721Z,26.33
2018-08-09T08:22:09.550Z,26.35
2018-08-09T08:27:13.444Z,26.42
2018-08-09T08:32:18.366Z,26.47
2018-08-09T08:37:22.174Z,26.51
2018-08-09T08:42:25.863Z,26.58
2018-08-09T08:47:29.808Z,26.57
2018-08-09T08:52:33.558Z,26.59
2018-08-09T08:57:37.369Z,26.62
2018-08-09T09:02:41.433Z,26.71
2018-08-09T09:07:45.278Z,26.74
2018-08-09T09:12:49.021Z,26.81
2018-08-09T09:17:58.356Z,26.83
2018-08-09T09:23:02.113Z,26.85
2018-08-09T09:28:06.069Z,26.95
2018-08-09T09:33:09.894Z,26.95
2018-08-09T09:38:14.202Z,26.93
2018-08-09T09:43:18.040Z,26.93
2018-08-09T09:48:21.789Z,26.98
2018-08-09T09:53:25.566Z,26.94
2018-08-09T09:58:29.289Z,26.95
2018-08-09T10:03:33.119Z,26.94
2018-08-09T10:08:36.826Z,26.92
2018-08-09T10:13:40.649Z,26.95
2018-08-09T10:18:44.694Z,26.95
2018-08-09T10:23:48.616Z,26.98
2018-08-09T10:28:52.482Z,27.00
2018-08-09T10:33:58.589Z,26.96
2018-08-09T10:39:04.901Z,27.01
2018-08-09T10:44:08.714Z,27.00
2018-08-09T10:49:12.523Z,27.00
2018-08-09T10:54:16.325Z,27.12
2018-08-09T10:59:20.545Z,27.12
2018-08-09T11:04:24.372Z,27.07
2018-08-09T11:09:28.118Z,27.12
2018-08-09T11:14:31.969Z,27.04
2018-08-09T11:19:35.990Z,27.11
2018-08-09T11:24:39.796Z,27.21
2018-08-09T11:29:43.584Z,27.17
2018-08-09T11:34:47.512Z,27.22
2018-08-09T11:39:51.319Z,27.04
2018-08-09T11:44:55.083Z,27.13
2018-08-09T11:49:59.018Z,27.13
2018-08-09T11:55:04.146Z,27.13
2018-08-09T12:00:09.108Z,27.15
2018-08-09T12:05:12.993Z,27.16
2018-08-09T12:10:17.000Z,27.19
2018-08-09T12:15:21.045Z,27.19
2018-08-09T12:20:24.943Z,27.22
2018-08-09T12:25:29.347Z,27.21
2018-08-09T12:30:33.201Z,27.22
2018-08-09T12:35:37.175Z,27.22
2018-08-09T12:40:41.058Z,27.25
2018-08-09T12:45:45.001Z,27.24
2018-08-09T12:50:48.928Z,27.24
2018-08-09T12:55:52.870Z,27.19
2018-08-09T13:00:57.727Z,27.23
2018-08-09T13:06:01.524Z,27.24
2018-08-09T13:11:05.610Z,27.23
2018-08-09T13:16:09.998Z,27.23
2018-08-09T13:21:13.891Z,27.27
2018-08-09T13:26:17.885Z,27.46
2018-08-09T13:31:21.846Z,27.55
2018-08-09T13:36:25.876Z,27.39
2018-08-09T13:41:29.710Z,27.35
2018-08-09T13:46:33.700Z,27.36
2018-08-09T13:51:37.794Z,27.32
2018-08-09T13:56:41.633Z,27.34
2018-08-09T14:01:45.572Z,27.36
2018-08-09T14:06:49.523Z,27.37
2018-08-09T14:11:53.498Z,27.37
2018-08-09T14:16:57.466Z,27.36
2018-08-09T14:22:01.561Z,27.37
2018-08-09T14:27:05.573Z,27.40
2018-08-09T14:32:09.377Z,27.42
2018-08-09T14:37:13.161Z,27.40
2018-08-09T14:42:17.339Z,27.42
2018-08-09T14:47:21.096Z,27.40
2018-08-09T14:52:25.239Z,27.41
2018-08-09T14:57:29.104Z,27.43
2018-08-09T15:02:32.901Z,27.46
2018-08-09T15:07:36.709Z,27.50
2018-08-09T15:12:40.516Z,27.50
2018-08-09T15:17:44.436Z,27.56
2018-08-09T15:22:48.321Z,27.59
2018-08-09T15:27:52.168Z,27.61
2018-08-09T15:32:55.952Z,27.61
2018-08-09T15:38:00.153Z,27.66
2018-08-09T15:43:03.963Z,27.71
2018-08-09T15:48:08.834Z,27.75
2018-08-09T15:53:12.930Z,27.86
2018-08-09T15:58:16.710Z,27.78
2018-08-09T16:03:20.538Z,28.00
2018-08-09T16:08:24.372Z,28.10
2018-08-09T16:13:28.189Z,28.22
2018-08-09T16:18:32.081Z,28.38
2018-08-09T16:23:35.898Z,28.43
2018-08-09T16:28:39.754Z,28.34
2018-08-09T16:33:44.002Z,28.13
2018-08-09T16:38:47.805Z,28.14
2018-08-09T16:43:51.905Z,28.11
2018-08-09T16:48:55.860Z,28.13
2018-08-09T16:54:00.128Z,28.13
2018-08-09T16:59:04.021Z,28.15
2018-08-09T17:04:08.342Z,28.14
2018-08-09T17:09:14.083Z,28.11
2018-08-09T17:14:18.015Z,28.13
2018-08-09T17:19:22.207Z,28.17
2018-08-09T17:24:26.237Z,28.18
2018-08-09T17:29:30.225Z,28.21
2018-08-09T17:34:34.189Z,28.21
2018-08-09T17:39:38.009Z,28.16
2018-08-09T17:44:41.750Z,28.18
2018-08-09T17:49:45.533Z,28.25
2018-08-09T17:54:49.435Z,28.29
2018-08-09T17:59:53.462Z,28.21
2018-08-09T18:04:58.265Z,28.19
2018-08-09T18:10:05.809Z,28.22
2018-08-09T18:15:09.733Z,28.22
2018-08-09T18:20:17.574Z,28.32
2018-08-09T18:25:21.266Z,28.38
2018-08-09T18:30:25.549Z,28.42
2018-08-09T18:35:29.433Z,28.31
2018-08-09T18:51:25.264Z,28.05
2018-08-09T18:56:30.070Z,28.58
2018-08-09T19:01:35.850Z,28.50
2018-08-09T19:06:40.592Z,28.39
2018-08-09T19:11:44.478Z,28.23
2018-08-09T19:16:48.660Z,28.27
2018-08-09T19:21:54.435Z,28.03
2018-08-09T19:26:58.437Z,28.00
2018-08-09T19:32:02.860Z,27.93
2018-08-09T19:37:06.833Z,27.97
2018-08-09T19:42:10.907Z,27.97
2018-08-09T19:47:14.974Z,27.90
2018-08-09T19:52:19.089Z,27.96
2018-08-09T19:57:22.901Z,27.94
2018-08-09T20:02:26.997Z,27.98
2018-08-09T20:07:30.803Z,27.91
2018-08-09T20:12:34.755Z,27.91
2018-08-09T20:17:39.589Z,27.94
2018-08-09T20:22:44.906Z,27.85
2018-08-09T20:27:48.866Z,27.87
2018-08-09T20:32:52.950Z,27.84
2018-08-09T20:37:57.567Z,27.86
2018-08-09T20:43:01.356Z,27.88
2018-08-09T20:48:05.287Z,27.92
2018-08-09T20:53:09.023Z,27.89
2018-08-09T20:58:12.973Z,27.92
2018-08-09T21:03:17.322Z,27.92
2018-08-09T21:08:21.347Z,27.94
2018-08-09T21:13:26.626Z,27.95
2018-08-09T21:18:30.576Z,27.95
2018-08-09T21:23:34.234Z,27.95
2018-08-09T21:28:37.974Z,28.02
2018-08-09T21:33:42.491Z,28.08
2018-08-09T21:38:46.318Z,28.02
2018-08-09T21:43:50.045Z,28.05
2018-08-09T21:48:53.899Z,28.04
2018-08-09T21:53:58.050Z,27.95
2018-08-09T21:59:01.742Z,28.13
2018-08-09T22:04:05.438Z,28.00
2018-08-09T22:09:15.474Z,28.03
2018-08-09T22:14:24.579Z,28.03
2018-08-09T22:19:33.639Z,28.02
2018-08-09T22:24:38.006Z,27.98
2018-08-09T22:29:41.793Z,28.01
2018-08-09T22:34:45.592Z,28.01
2018-08-09T22:39:49.396Z,28.03
2018-08-09T22:44:53.186Z,28.04
2018-08-09T22:49:57.049Z,28.04
2018-08-09T22:55:00.945Z,28.04
2018-08-09T23:00:07.813Z,28.07
2018-08-09T23:05:11.592Z,28.09
2018-08-09T23:10:15.443Z,28.03
2018-08-09T23:15:19.122Z,28.00
2018-08-09T23:20:22.938Z,27.86
2018-08-09T23:25:26.582Z,27.76
2018-08-09T23:30:30.361Z,27.73
2018-08-09T23:35:34.200Z,27.72
2018-08-09T23:40:37.969Z,27.71
2018-08-09T23:45:41.874Z,27.66
2018-08-09T23:50:45.606Z,27.66
2018-08-09T23:55:49.321Z,27.59
